Time;durP1;ratioP1;P1;durP2;ratioP2;P2;SDS_P1;SDS_P2;PMS_P1;PMS_P2;Temp;Humidity;BMP_temperature;BMP_pressure;BME280_temperature;BME280_humidity;BME280_pressure;Samples;Min_cycle;Max_cycle;Signal;HPM_P1;HPM_P2
2022/07/14 00:00:14;;;;;;;5.40;4.00;;;22.20;1.00;;;;;;6294738;22;20383;-81
2022/07/14 00:02:42;;;;;;;6.27;4.40;;;22.10;1.00;;;;;;6291592;22;20407;-80
2022/07/14 00:05:13;;;;;;;5.63;4.00;;;22.10;1.00;;;;;;6292280;22;20566;-83
2022/07/14 00:07:40;;;;;;;7.23;4.50;;;22.00;1.00;;;;;;6292523;22;20414;-83
2022/07/14 00:10:13;;;;;;;6.00;4.27;;;22.00;1.00;;;;;;6293153;22;20427;-83
2022/07/14 00:12:40;;;;;;;5.90;4.30;;;21.90;1.00;;;;;;6293694;22;20465;-85
2022/07/14 00:15:17;;;;;;;6.93;4.53;;;21.90;1.00;;;;;;6293719;22;20433;-81
2022/07/14 00:17:45;;;;;;;5.47;3.60;;;21.80;1.00;;;;;;6293290;22;20419;-82
2022/07/14 00:20:13;;;;;;;6.60;4.20;;;21.70;1.00;;;;;;6292230;22;20395;-82
2022/07/14 00:22:40;;;;;;;6.63;3.87;;;21.70;1.00;;;;;;6290945;22;20911;-80
2022/07/14 00:25:12;;;;;;;6.10;3.90;;;21.60;1.00;;;;;;6290562;22;20419;-81
2022/07/14 00:27:39;;;;;;;6.00;4.37;;;21.50;1.00;;;;;;6290552;22;20388;-81
2022/07/14 00:30:11;;;;;;;6.90;4.03;;;21.50;1.00;;;;;;6293501;22;20509;-84
2022/07/14 00:32:38;;;;;;;6.50;4.00;;;21.40;1.00;;;;;;6295326;22;20412;-83
2022/07/14 00:35:13;;;;;;;6.27;4.17;;;21.40;1.00;;;;;;6294504;22;20423;-82
2022/07/14 00:37:40;;;;;;;7.43;4.60;;;21.30;1.00;;;;;;6294348;22;20426;-81
2022/07/14 00:40:13;;;;;;;7.67;4.37;;;21.30;1.00;;;;;;6288856;22;20431;-82
2022/07/14 00:42:43;;;;;;;7.23;4.40;;;21.20;1.00;;;;;;6293711;22;20902;-82
2022/07/14 00:45:16;;;;;;;6.53;3.93;;;21.10;1.00;;;;;;6294934;22;20410;-82
2022/07/14 00:47:44;;;;;;;6.40;4.30;;;21.10;1.00;;;;;;6293958;22;20447;-81
2022/07/14 00:50:18;;;;;;;9.83;4.33;;;21.10;1.00;;;;;;6295092;22;20463;-83
2022/07/14 00:52:56;;;;;;;7.00;4.27;;;21.00;1.00;;;;;;6294416;22;20776;-81
2022/07/14 00:55:23;;;;;;;7.83;4.43;;;21.00;1.00;;;;;;6294075;22;20419;-84
2022/07/14 00:57:53;;;;;;;9.00;4.43;;;21.00;1.00;;;;;;6293045;22;20637;-81
2022/07/14 01:00:20;;;;;;;10.80;4.47;;;20.90;1.00;;;;;;6293882;22;20407;-81
2022/07/14 01:02:52;;;;;;;7.90;4.33;;;20.80;1.00;;;;;;6294243;22;20407;-84
2022/07/14 01:05:21;;;;;;;7.10;3.77;;;20.80;1.00;;;;;;6293923;22;20427;-81
2022/07/14 01:07:51;;;;;;;7.87;4.20;;;20.70;1.00;;;;;;6291201;22;20422;-80
2022/07/14 01:10:18;;;;;;;7.20;3.60;;;20.70;1.00;;;;;;6293856;22;20612;-83
2022/07/14 01:12:47;;;;;;;8.27;4.00;;;20.70;1.00;;;;;;6292084;22;20407;-81
2022/07/14 01:15:21;;;;;;;6.30;3.07;;;20.70;1.00;;;;;;6289007;22;20414;-83
2022/07/14 01:17:53;;;;;;;7.80;3.60;;;20.70;1.00;;;;;;6291962;22;20399;-82
2022/07/14 01:20:22;;;;;;;6.97;2.90;;;20.60;1.00;;;;;;6285513;22;20565;-79
2022/07/14 01:22:56;;;;;;;6.20;3.00;;;20.50;1.00;;;;;;6293242;22;20562;-80
2022/07/14 01:25:23;;;;;;;9.90;3.50;;;20.50;1.00;;;;;;6292579;22;20450;-80
2022/07/14 01:27:53;;;;;;;9.33;3.63;;;20.40;1.00;;;;;;6293429;22;20422;-82
2022/07/14 01:30:20;;;;;;;7.03;2.80;;;20.40;1.00;;;;;;6291772;22;20422;-84
2022/07/14 01:32:47;;;;;;;7.47;2.90;;;20.30;1.00;;;;;;6292087;22;20899;-81
2022/07/14 01:35:14;;;;;;;7.13;3.40;;;20.30;1.00;;;;;;6293618;22;20422;-80
2022/07/14 01:37:41;;;;;;;6.53;3.30;;;20.20;1.00;;;;;;6292247;22;20426;-79
2022/07/14 01:40:14;;;;;;;6.83;2.93;;;20.20;1.00;;;;;;6292164;22;20438;-83
2022/07/14 01:42:41;;;;;;;7.10;2.87;;;20.10;1.00;;;;;;6291564;22;20511;-84
2022/07/14 01:45:13;;;;;;;8.10;3.27;;;20.10;1.00;;;;;;6291894;22;20405;-81
2022/07/14 01:47:40;;;;;;;8.63;2.90;;;20.00;1.00;;;;;;6291114;22;20397;-83
2022/07/14 01:50:16;;;;;;;6.80;2.70;;;19.90;1.00;;;;;;6295621;22;20458;-82
2022/07/14 01:52:42;;;;;;;6.03;2.13;;;19.90;1.00;;;;;;6295418;22;20386;-80
2022/07/14 01:55:14;;;;;;;9.10;3.13;;;19.80;1.00;;;;;;6295685;22;20438;-83
2022/07/14 01:57:42;;;;;;;6.13;2.30;;;19.70;1.00;;;;;;6292129;22;20723;-83
2022/07/14 02:00:14;;;;;;;18.80;3.00;;;19.60;1.00;;;;;;6291917;22;20502;-79
2022/07/14 02:02:40;;;;;;;6.10;2.37;;;19.60;1.00;;;;;;6291961;22;20470;-80
2022/07/14 02:05:11;;;;;;;11.47;5.97;;;19.70;1.00;;;;;;6293125;22;20446;-79
2022/07/14 02:07:38;;;;;;;7.40;2.67;;;19.60;1.00;;;;;;6293986;22;20522;-83
2022/07/14 02:12:54;;;;;;;7.37;2.33;;;19.50;1.00;;;;;;6294657;22;20568;-81
2022/07/14 02:15:21;;;;;;;5.83;2.47;;;19.50;1.00;;;;;;6295265;22;20415;-80
2022/07/14 02:17:51;;;;;;;6.53;3.13;;;19.40;1.00;;;;;;6291017;22;20984;-81
2022/07/14 02:20:24;;;;;;;6.00;2.50;;;19.30;1.00;;;;;;6278720;22;20422;-81
2022/07/14 02:23:01;;;;;;;6.50;2.87;;;19.30;1.00;;;;;;6263846;22;20849;-81
2022/07/14 02:25:30;;;;;;;7.87;2.67;;;19.20;1.00;;;;;;6294012;22;20433;-81
2022/07/14 02:28:03;;;;;;;7.13;2.73;;;19.20;1.00;;;;;;6277693;22;20451;-81
2022/07/14 02:30:33;;;;;;;5.87;2.47;;;19.10;1.00;;;;;;6293172;22;20395;-80
2022/07/14 02:33:00;;;;;;;7.77;2.60;;;19.10;1.00;;;;;;6292131;22;20431;-84
2022/07/14 02:35:32;;;;;;;7.33;3.07;;;19.00;1.00;;;;;;6279741;22;20596;-80
2022/07/14 02:38:01;;;;;;;8.60;3.13;;;18.90;1.00;;;;;;6292804;22;20473;-80
2022/07/14 02:40:33;;;;;;;8.60;2.90;;;18.90;1.00;;;;;;6295971;22;20427;-81
2022/07/14 02:43:02;;;;;;;7.53;2.77;;;18.80;1.00;;;;;;6294931;22;20379;-81
2022/07/14 02:45:38;;;;;;;8.43;2.70;;;18.80;1.00;;;;;;6295116;22;20399;-81
2022/07/14 02:48:10;;;;;;;6.60;2.67;;;18.70;1.00;;;;;;6293899;22;20423;-82
2022/07/14 02:50:40;;;;;;;6.90;2.80;;;18.70;1.00;;;;;;6293571;22;20451;-82
2022/07/14 02:53:12;;;;;;;7.20;3.33;;;18.70;1.00;;;;;;6293410;22;20490;-83
2022/07/14 02:55:38;;;;;;;9.63;2.63;;;18.70;1.00;;;;;;6292479;22;20423;-82
2022/07/14 02:58:12;;;;;;;8.57;3.30;;;18.70;1.00;;;;;;6293179;22;20438;-80
2022/07/14 03:00:39;;;;;;;7.63;3.30;;;18.60;1.00;;;;;;6292088;22;20438;-79
2022/07/14 03:03:06;;;;;;;11.40;3.87;;;18.50;1.00;;;;;;6294308;22;20387;-80
2022/07/14 03:05:33;;;;;;;7.17;2.70;;;18.50;1.00;;;;;;6293689;22;20395;-83
2022/07/14 03:08:00;;;;;;;7.77;3.70;;;18.50;1.00;;;;;;6292837;22;20411;-80
2022/07/14 03:10:32;;;;;;;10.13;3.87;;;18.40;1.00;;;;;;6294472;22;20407;-83
2022/07/14 03:13:03;;;;;;;9.80;3.13;;;18.40;1.00;;;;;;6291064;22;20406;-81
2022/07/14 03:15:32;;;;;;;7.13;2.90;;;18.40;1.00;;;;;;6292600;22;20419;-81
2022/07/14 03:18:04;;;;;;;6.70;2.60;;;18.30;1.00;;;;;;6252683;22;20375;-82
2022/07/14 03:20:33;;;;;;;8.90;2.57;;;18.20;1.00;;;;;;6277996;22;20451;-81
2022/07/14 03:23:03;;;;;;;7.60;2.60;;;18.20;1.00;;;;;;6279671;22;20459;-81
2022/07/14 03:25:32;;;;;;;7.83;2.40;;;18.20;1.00;;;;;;6281264;22;20419;-81
2022/07/14 03:27:59;;;;;;;13.57;3.70;;;18.20;1.00;;;;;;6278808;22;20427;-82
2022/07/14 03:30:26;;;;;;;8.63;2.80;;;18.10;1.00;;;;;;6293998;22;20457;-81
2022/07/14 03:32:55;;;;;;;8.37;3.10;;;18.10;1.00;;;;;;6293095;22;20487;-80
2022/07/14 03:35:22;;;;;;;7.83;2.63;;;18.10;1.00;;;;;;6294923;22;20411;-81
2022/07/14 03:37:54;;;;;;;8.97;4.40;;;18.00;1.00;;;;;;6295696;22;20380;-83
2022/07/14 03:40:21;;;;;;;10.47;2.83;;;18.00;1.00;;;;;;6294338;22;20435;-84
2022/07/14 03:42:52;;;;;;;13.27;3.80;;;18.00;1.00;;;;;;6290245;22;20455;-83
2022/07/14 03:45:19;;;;;;;8.10;2.90;;;18.00;1.00;;;;;;6289054;22;20419;-81
2022/07/14 03:47:46;;;;;;;26.07;7.63;;;17.90;1.00;;;;;;6294184;22;20403;-81
2022/07/14 03:50:15;;;;;;;10.23;3.33;;;17.90;1.00;;;;;;6293168;22;20398;-81
2022/07/14 03:52:43;;;;;;;9.13;3.40;;;17.90;1.00;;;;;;6277538;22;21064;-81
2022/07/14 03:55:12;;;;;;;12.10;3.27;;;17.90;1.00;;;;;;6290692;22;20493;-82
2022/07/14 03:57:43;;;;;;;9.03;3.37;;;17.90;1.00;;;;;;6291867;22;20394;-81
2022/07/14 04:00:15;;;;;;;10.20;3.07;;;17.80;1.00;;;;;;6292927;22;20481;-81
2022/07/14 04:02:43;;;;;;;13.03;3.83;;;17.80;1.00;;;;;;6291497;22;20391;-81
2022/07/14 04:05:15;;;;;;;10.47;4.00;;;17.70;1.00;;;;;;6293523;22;20411;-80
2022/07/14 04:07:42;;;;;;;10.30;4.00;;;17.70;1.00;;;;;;6290484;22;20481;-81
2022/07/14 04:10:13;;;;;;;9.70;3.40;;;17.60;1.00;;;;;;6292323;22;20455;-80
2022/07/14 04:12:40;;;;;;;10.70;3.67;;;17.70;1.00;;;;;;6291866;22;20418;-81
2022/07/14 04:15:15;;;;;;;9.20;3.20;;;17.60;1.00;;;;;;6289221;22;20423;-80
2022/07/14 04:17:42;;;;;;;10.83;3.53;;;17.50;1.00;;;;;;6291981;22;21209;-84
2022/07/14 04:20:17;;;;;;;11.33;5.20;;;17.50;1.00;;;;;;6292742;22;20428;-80
2022/07/14 04:22:44;;;;;;;17.03;5.77;;;17.50;1.00;;;;;;6291416;22;20418;-80
2022/07/14 04:25:13;;;;;;;10.17;4.67;;;17.50;1.00;;;;;;6292392;22;20383;-81
2022/07/14 04:27:41;;;;;;;8.90;3.20;;;17.40;1.00;;;;;;6292006;22;20971;-83
2022/07/14 04:30:14;;;;;;;7.60;2.70;;;17.40;1.00;;;;;;6292574;22;20825;-81
2022/07/14 04:32:41;;;;;;;10.43;3.20;;;17.40;1.00;;;;;;6291450;22;20425;-80
2022/07/14 04:35:13;;;;;;;10.30;3.33;;;17.30;1.00;;;;;;6292255;22;20415;-79
2022/07/14 04:37:42;;;;;;;8.53;3.33;;;17.20;1.00;;;;;;6291359;22;20383;-81
2022/07/14 04:40:14;;;;;;;9.63;4.03;;;17.30;1.00;;;;;;6292733;22;20402;-81
2022/07/14 04:42:41;;;;;;;11.37;4.23;;;17.20;1.00;;;;;;6291118;22;20419;-81
2022/07/14 04:45:13;;;;;;;13.30;3.93;;;17.20;1.00;;;;;;6293337;22;20420;-83
2022/07/14 04:47:40;;;;;;;8.50;3.03;;;17.20;1.00;;;;;;6292810;22;21356;-79
2022/07/14 04:52:54;;;;;;;12.30;4.10;;;17.20;1.00;;;;;;6290486;22;20402;-81
2022/07/14 04:55:21;;;;;;;14.10;4.43;;;17.20;1.00;;;;;;6292330;22;20395;-80
2022/07/14 04:57:51;;;;;;;11.87;3.70;;;17.30;1.00;;;;;;6291454;22;20434;-81
2022/07/14 05:00:19;;;;;;;11.30;4.10;;;17.30;1.00;;;;;;6291088;22;20845;-83
2022/07/14 05:02:50;;;;;;;10.27;2.97;;;17.30;1.00;;;;;;6287951;22;20415;-83
2022/07/14 05:05:20;;;;;;;11.67;3.37;;;17.30;1.00;;;;;;6292317;22;20420;-80
2022/07/14 05:07:52;;;;;;;9.57;2.90;;;17.30;1.00;;;;;;6290798;22;20477;-80
2022/07/14 05:10:20;;;;;;;16.73;4.63;;;17.40;1.00;;;;;;6292289;22;20426;-82
2022/07/14 05:12:54;;;;;;;10.83;3.50;;;17.50;1.00;;;;;;6291311;22;20407;-80
2022/07/14 05:15:21;;;;;;;10.23;3.97;;;17.60;1.00;;;;;;6275683;22;20418;-82
2022/07/14 05:17:50;;;;;;;9.63;3.67;;;17.70;1.00;;;;;;6290992;22;20434;-81
2022/07/14 05:20:19;;;;;;;9.43;3.70;;;17.70;1.00;;;;;;6291764;22;20453;-81
2022/07/14 05:22:45;;;;;;;12.23;3.87;;;17.70;1.00;;;;;;6291487;22;20425;-84
2022/07/14 05:25:13;;;;;;;12.27;3.53;;;17.80;1.00;;;;;;6288112;22;20408;-84
2022/07/14 05:27:44;;;;;;;8.47;3.23;;;17.90;1.00;;;;;;6286395;22;20875;-83
2022/07/14 05:30:12;;;;;;;9.67;3.43;;;18.00;1.00;;;;;;6288471;22;20438;-83
2022/07/14 05:32:39;;;;;;;12.57;4.40;;;18.00;1.00;;;;;;6288419;22;20463;-83
2022/07/14 05:35:07;;;;;;;10.30;3.40;;;18.00;1.00;;;;;;6285975;22;20410;-82
2022/07/14 05:37:34;;;;;;;12.47;3.03;;;18.00;1.00;;;;;;6287520;22;20384;-83
2022/07/14 05:40:01;;;;;;;10.40;3.30;;;18.00;1.00;;;;;;6288328;22;20458;-84
2022/07/14 05:42:28;;;;;;;10.97;3.30;;;18.00;1.00;;;;;;6288145;22;20388;-84
2022/07/14 05:44:56;;;;;;;9.70;3.40;;;18.00;1.00;;;;;;6285965;22;20457;-84
2022/07/14 05:47:23;;;;;;;13.90;4.23;;;18.00;1.00;;;;;;6288181;22;20429;-83
2022/07/14 05:49:50;;;;;;;12.90;4.63;;;18.10;1.00;;;;;;6285712;22;20947;-83
2022/07/14 05:52:17;;;;;;;10.63;3.07;;;18.20;1.00;;;;;;6287888;22;20431;-84
2022/07/14 05:54:44;;;;;;;11.03;3.13;;;18.40;1.00;;;;;;6287910;22;20413;-84
2022/07/14 05:57:13;;;;;;;9.10;3.20;;;18.50;1.00;;;;;;6287861;22;20606;-83
2022/07/14 05:59:40;;;;;;;11.50;2.87;;;18.60;1.00;;;;;;6287795;22;20410;-83
2022/07/14 06:02:08;;;;;;;8.33;3.30;;;18.60;1.00;;;;;;6289224;22;20411;-82
2022/07/14 06:04:35;;;;;;;13.00;3.37;;;18.70;1.00;;;;;;6288466;22;20420;-84
2022/07/14 06:07:02;;;;;;;13.17;4.20;;;18.70;1.00;;;;;;6286995;22;20482;-84
2022/07/14 06:09:29;;;;;;;10.77;3.50;;;18.80;1.00;;;;;;6287532;22;20501;-84
2022/07/14 06:11:56;;;;;;;10.00;3.37;;;18.90;1.00;;;;;;6286618;22;20415;-85
2022/07/14 06:14:22;;;;;;;9.23;3.27;;;19.00;1.00;;;;;;6286280;22;20475;-83
2022/07/14 06:16:49;;;;;;;13.07;4.53;;;19.10;1.00;;;;;;6288783;22;20584;-84
2022/07/14 06:19:17;;;;;;;8.90;3.27;;;19.20;1.00;;;;;;6287134;22;20423;-84
2022/07/14 06:21:44;;;;;;;7.57;2.67;;;19.10;1.00;;;;;;6286322;22;20901;-84
2022/07/14 06:24:12;;;;;;;7.53;2.40;;;19.00;1.00;;;;;;6286315;22;20447;-82
2022/07/14 06:26:39;;;;;;;16.13;3.30;;;18.90;1.00;;;;;;6285991;22;20387;-83
2022/07/14 06:29:06;;;;;;;9.27;3.30;;;18.90;1.00;;;;;;6287328;22;20474;-85
2022/07/14 06:31:34;;;;;;;8.60;3.20;;;19.00;1.00;;;;;;6285579;22;20415;-83
2022/07/14 06:34:01;;;;;;;12.40;4.33;;;19.10;1.00;;;;;;6285144;22;20403;-84
2022/07/14 06:36:29;;;;;;;9.50;3.50;;;19.10;1.00;;;;;;6288269;22;20463;-83
2022/07/14 06:38:56;;;;;;;8.30;2.63;;;19.10;1.00;;;;;;6286712;22;21023;-83
2022/07/14 06:41:23;;;;;;;8.97;3.23;;;19.20;1.00;;;;;;6287997;22;20418;-83
2022/07/14 06:43:50;;;;;;;11.53;3.07;;;19.20;1.00;;;;;;6286642;22;20390;-84
2022/07/14 06:46:18;;;;;;;10.60;3.03;;;19.40;1.00;;;;;;6288556;22;20431;-84
2022/07/14 06:48:45;;;;;;;9.27;2.93;;;19.50;1.00;;;;;;6286565;22;20484;-83
2022/07/14 06:51:12;;;;;;;9.63;2.30;;;19.50;1.00;;;;;;6286176;22;20391;-84
2022/07/14 06:53:40;;;;;;;10.67;2.43;;;19.60;1.00;;;;;;6286542;22;20579;-83
2022/07/14 06:56:08;;;;;;;7.00;2.43;;;19.70;1.00;;;;;;6286243;22;20498;-81
2022/07/14 06:58:35;;;;;;;9.40;2.47;;;19.70;1.00;;;;;;6285847;22;20431;-83
2022/07/14 07:01:02;;;;;;;10.37;2.57;;;19.70;1.00;;;;;;6286909;22;20415;-85
2022/07/14 07:03:29;;;;;;;7.90;2.53;;;19.60;1.00;;;;;;6288855;22;20418;-83
2022/07/14 07:08:45;;;;;;;7.37;2.13;;;19.40;1.00;;;;;;6291354;22;20391;-83
2022/07/14 07:11:15;;;;;;;6.70;2.30;;;19.50;1.00;;;;;;6291597;22;20376;-82
2022/07/14 07:13:42;;;;;;;8.50;2.60;;;19.50;1.00;;;;;;6291507;22;20454;-81
2022/07/14 07:16:13;;;;;;;8.67;3.07;;;19.50;1.00;;;;;;6289412;22;20860;-80
2022/07/14 07:18:40;;;;;;;11.10;2.80;;;19.40;1.00;;;;;;6291015;22;20427;-79
2022/07/14 07:21:12;;;;;;;7.37;2.37;;;19.40;1.00;;;;;;6291796;22;20463;-82
2022/07/14 07:23:44;;;;;;;8.93;2.80;;;19.40;1.00;;;;;;6289895;22;20419;-81
2022/07/14 07:26:17;;;;;;;10.10;4.20;;;19.50;1.00;;;;;;6292289;22;20387;-82
2022/07/14 07:28:44;;;;;;;7.40;2.30;;;19.60;1.00;;;;;;6289630;22;20421;-82
2022/07/14 07:31:14;;;;;;;9.00;2.37;;;19.50;1.00;;;;;;6293467;22;20406;-83
2022/07/14 07:33:42;;;;;;;10.67;2.77;;;19.50;1.00;;;;;;6291913;22;20419;-81
2022/07/14 07:36:14;;;;;;;8.57;2.23;;;19.50;1.00;;;;;;6259004;22;20419;-81
2022/07/14 07:38:41;;;;;;;7.70;2.27;;;19.50;1.00;;;;;;6265445;22;20399;-83
2022/07/14 07:41:13;;;;;;;7.13;2.10;;;19.50;1.00;;;;;;6292844;22;20422;-79
2022/07/14 07:43:42;;;;;;;6.60;2.37;;;19.50;1.00;;;;;;6292534;22;20422;-83
2022/07/14 07:46:14;;;;;;;9.90;2.63;;;19.60;1.00;;;;;;6292392;22;20411;-82
2022/07/14 07:48:42;;;;;;;7.43;2.00;;;19.60;1.00;;;;;;6290363;22;20470;-82
2022/07/14 07:51:16;;;;;;;7.20;2.07;;;19.60;1.00;;;;;;6277444;22;20398;-82
2022/07/14 07:53:45;;;;;;;9.23;2.50;;;19.80;1.00;;;;;;6291803;22;20415;-81
2022/07/14 07:56:14;;;;;;;7.57;2.13;;;19.80;1.00;;;;;;6294011;22;20406;-82
2022/07/14 07:58:44;;;;;;;10.60;2.57;;;19.90;1.00;;;;;;6295216;22;20431;-81
2022/07/14 08:01:14;;;;;;;5.13;1.90;;;20.00;1.00;;;;;;6293599;22;20501;-82
2022/07/14 08:03:41;;;;;;;5.80;1.83;;;20.00;1.00;;;;;;6291729;22;20415;-81
2022/07/14 08:06:14;;;;;;;7.47;1.93;;;20.10;1.00;;;;;;6294770;22;20411;-82
2022/07/14 08:08:42;;;;;;;5.70;2.07;;;20.30;1.00;;;;;;6288374;22;20427;-82
2022/07/14 08:11:14;;;;;;;9.73;2.80;;;20.60;1.00;;;;;;6294856;22;20462;-81
2022/07/14 08:13:45;;;;;;;6.97;2.60;;;20.80;1.00;;;;;;6290688;22;20399;-80
2022/07/14 08:16:13;;;;;;;8.97;3.03;;;20.90;1.00;;;;;;6293800;22;20426;-83
2022/07/14 08:18:44;;;;;;;6.97;2.40;;;21.10;1.00;;;;;;6263668;22;20462;-83
2022/07/14 08:21:17;;;;;;;5.70;2.07;;;21.20;1.00;;;;;;6295911;22;20418;-82
2022/07/14 08:23:44;;;;;;;7.30;2.67;;;21.30;1.00;;;;;;6259903;22;20411;-80
2022/07/14 08:26:14;;;;;;;6.00;2.17;;;21.40;1.00;;;;;;6290295;22;20443;-82
2022/07/14 08:28:45;;;;;;;6.40;2.10;;;21.50;1.00;;;;;;6276050;22;20604;-81
2022/07/14 08:31:25;;;;;;;5.37;1.80;;;21.50;1.00;;;;;;6277121;22;20447;-83
2022/07/14 08:33:56;;;;;;;6.43;2.40;;;21.40;1.00;;;;;;6262584;22;20415;-85
2022/07/14 08:36:24;;;;;;;5.53;1.60;;;21.40;1.00;;;;;;6248575;22;20423;-80
2022/07/14 08:39:07;;;;;;;4.50;1.40;;;21.40;1.00;;;;;;6263551;22;20414;-81
2022/07/14 08:41:38;;;;;;;5.60;1.70;;;21.30;1.00;;;;;;6289977;22;20390;-82
2022/07/14 08:44:09;;;;;;;8.10;1.87;;;21.30;1.00;;;;;;6289594;22;20494;-80
2022/07/14 08:46:43;;;;;;;5.00;2.00;;;21.30;1.00;;;;;;6260481;22;20423;-80
2022/07/14 08:49:15;;;;;;;4.33;1.43;;;21.40;1.00;;;;;;6276684;22;20435;-82
2022/07/14 08:51:46;;;;;;;6.30;1.93;;;21.50;1.00;;;;;;6277259;22;20404;-81
2022/07/14 08:54:17;;;;;;;4.87;1.40;;;21.60;1.00;;;;;;6290963;22;20488;-80
2022/07/14 08:56:44;;;;;;;4.80;1.80;;;21.60;1.00;;;;;;6276532;22;20481;-81
2022/07/14 08:59:17;;;;;;;7.60;2.03;;;21.70;1.00;;;;;;6278654;22;20442;-82
2022/07/14 09:01:45;;;;;;;4.60;1.43;;;21.70;1.00;;;;;;6289320;22;20914;-82
2022/07/14 09:04:14;;;;;;;5.80;1.50;;;21.70;1.00;;;;;;6291084;22;20387;-80
2022/07/14 09:06:54;;;;;;;5.47;1.90;;;21.70;1.00;;;;;;6291148;22;20447;-86
2022/07/14 09:09:24;;;;;;;6.67;1.97;;;21.80;1.00;;;;;;6296759;22;20461;-85
2022/07/14 09:11:57;;;;;;;4.80;1.67;;;22.00;1.00;;;;;;6294966;22;20376;-84
2022/07/14 09:15:44;;;;;;;3.90;1.57;;;22.10;1.00;;;;;;6292039;22;21356;-84
2022/07/14 09:17:22;;;;;;;5.10;1.77;;;22.20;1.00;;;;;;6294000;22;20425;-80
2022/07/14 09:20:09;;;;;;;5.67;1.60;;;22.40;1.00;;;;;;6264335;22;20438;-80
2022/07/14 09:22:43;;;;;;;4.87;1.30;;;22.50;1.00;;;;;;6290414;22;20414;-84
2022/07/14 09:25:15;;;;;;;5.23;1.67;;;22.60;1.00;;;;;;6297680;22;20398;-82
2022/07/14 09:27:53;;;;;;;5.30;1.50;;;22.80;1.00;;;;;;6290361;22;20403;-80
2022/07/14 09:30:25;;;;;;;3.97;1.47;;;22.80;1.00;;;;;;6296320;22;20405;-82
2022/07/14 09:32:56;;;;;;;4.27;1.30;;;23.00;1.00;;;;;;6279588;22;20391;-85
2022/07/14 09:35:26;;;;;;;3.97;1.13;;;23.10;1.00;;;;;;6294308;22;20399;-81
2022/07/14 09:37:55;;;;;;;4.57;1.30;;;23.10;1.00;;;;;;6293091;22;20390;-82
2022/07/14 09:40:31;;;;;;;5.20;1.43;;;23.30;1.00;;;;;;6294120;22;20404;-82
2022/07/14 09:43:04;;;;;;;6.63;1.20;;;23.70;1.00;;;;;;6264125;22;20434;-81
2022/07/14 09:45:35;;;;;;;4.90;2.00;;;25.10;1.00;;;;;;6290639;22;20938;-80
2022/07/14 09:48:07;;;;;;;4.90;1.87;;;26.80;1.00;;;;;;6290305;22;20405;-80
2022/07/14 09:50:45;;;;;;;4.63;1.77;;;28.50;1.00;;;;;;6291744;22;20427;-84
2022/07/14 09:53:23;;;;;;;4.13;1.60;;;29.70;1.00;;;;;;6296033;22;20490;-86
2022/07/14 09:55:59;;;;;;;4.27;1.70;;;30.70;1.00;;;;;;6295490;22;20436;-85
2022/07/14 09:58:29;;;;;;;2.53;1.00;;;31.60;1.00;;;;;;6296013;22;20415;-84
2022/07/14 10:01:11;;;;;;;3.53;1.57;;;32.40;1.00;;;;;;6295440;22;20396;-85
2022/07/14 10:03:46;;;;;;;3.43;1.50;;;32.60;1.00;;;;;;6295581;22;20411;-81
2022/07/14 10:06:17;;;;;;;6.83;1.70;;;33.00;1.00;;;;;;6288971;22;20457;-79
2022/07/14 10:08:54;;;;;;;3.80;1.73;;;33.50;1.00;;;;;;6289121;22;20514;-80
2022/07/14 10:11:21;;;;;;;4.13;1.33;;;33.70;1.00;;;;;;6293995;22;20506;-80
2022/07/14 10:13:50;;;;;;;3.07;1.20;;;33.80;1.00;;;;;;6291800;22;20419;-82
2022/07/14 10:16:21;;;;;;;2.87;1.10;;;34.10;1.00;;;;;;6285346;22;20398;-85
2022/07/14 10:18:49;;;;;;;3.13;1.20;;;34.50;1.00;;;;;;6293746;22;20438;-85
2022/07/14 10:21:18;;;;;;;3.50;1.53;;;35.00;1.00;;;;;;6295233;22;20399;-86
2022/07/14 10:23:47;;;;;;;2.93;1.20;;;35.20;1.00;;;;;;6294544;22;20469;-83
2022/07/14 10:26:18;;;;;;;3.90;1.50;;;35.30;1.00;;;;;;6296471;22;20421;-85
2022/07/14 10:28:45;;;;;;;3.60;1.10;;;35.30;1.00;;;;;;6296544;22;20379;-85
2022/07/14 10:31:21;;;;;;;3.73;1.10;;;35.50;1.00;;;;;;6295190;22;20405;-84
2022/07/14 10:33:57;;;;;;;3.10;1.20;;;35.80;1.00;;;;;;6293322;22;20418;-83
2022/07/14 10:36:32;;;;;;;4.50;2.50;;;35.80;1.00;;;;;;6294613;22;20473;-84
2022/07/14 10:39:09;;;;;;;3.30;1.10;;;36.00;1.00;;;;;;6295189;22;20422;-85
2022/07/14 10:41:52;;;;;;;3.60;1.33;;;36.30;1.00;;;;;;6293936;22;20421;-85
2022/07/14 10:44:22;;;;;;;2.40;0.80;;;36.60;1.00;;;;;;6267144;22;20387;-85
2022/07/14 10:47:08;;;;;;;3.03;1.40;;;36.90;1.00;;;;;;6295534;22;20387;-83
2022/07/14 10:50:01;;;;;;;2.23;0.83;;;36.90;1.00;;;;;;6294368;22;20406;-85
2022/07/14 10:52:29;;;;;;;2.97;1.17;;;37.10;1.00;;;;;;6294349;22;20434;-85
2022/07/14 10:55:12;;;;;;;2.30;1.33;;;36.80;1.00;;;;;;6293273;22;20422;-84
2022/07/14 10:57:39;;;;;;;3.87;1.10;;;37.20;1.00;;;;;;6289403;22;20932;-84
2022/07/14 11:00:07;;;;;;;3.80;1.83;;;37.40;1.00;;;;;;6293455;22;20447;-84
2022/07/14 11:02:38;;;;;;;2.73;1.03;;;37.30;1.00;;;;;;6295798;22;20418;-86
2022/07/14 11:05:14;;;;;;;2.23;0.90;;;37.70;1.00;;;;;;6267230;22;20463;-85
2022/07/14 11:07:47;;;;;;;4.27;1.40;;;38.30;1.00;;;;;;6295723;22;20394;-85
2022/07/14 11:11:08;;;;;;;1.80;0.80;;;38.50;1.00;;;;;;6298118;22;20388;-86
2022/07/14 11:13:51;;;;;;;2.33;0.80;;;38.60;1.00;;;;;;6295313;22;20518;-85
2022/07/14 11:16:18;;;;;;;3.77;1.30;;;38.40;1.00;;;;;;6282066;22;20806;-85
2022/07/14 11:18:48;;;;;;;2.40;1.43;;;38.40;1.00;;;;;;6292633;22;20424;-91
2022/07/14 11:21:16;;;;;;;2.63;1.63;;;38.60;1.00;;;;;;6288456;22;20507;-91
2022/07/14 11:23:57;;;;;;;2.20;1.17;;;38.80;1.00;;;;;;6274891;22;20484;-92
2022/07/14 11:26:40;;;;;;;1.80;1.00;;;39.10;1.00;;;;;;6287358;22;20415;-92
2022/07/14 11:29:08;;;;;;;3.57;2.30;;;39.20;1.00;;;;;;6289312;22;20402;-93
2022/07/14 11:31:46;;;;;;;6.07;2.43;;;39.00;1.00;;;;;;6288463;22;20973;-92
2022/07/14 11:37:11;;;;;;;2.60;1.17;;;39.30;1.00;;;;;;6287905;22;20415;-92
2022/07/14 11:39:42;;;;;;;2.70;1.10;;;39.60;1.00;;;;;;6288019;22;20451;-93
2022/07/14 11:42:12;;;;;;;4.33;1.40;;;40.20;1.00;;;;;;6288253;22;20419;-90
2022/07/14 11:44:54;;;;;;;5.00;1.87;;;40.60;1.00;;;;;;6284666;22;20403;-88
2022/07/14 11:47:29;;;;;;;2.40;1.33;;;40.70;1.00;;;;;;6287928;22;20419;-89
2022/07/14 11:50:03;;;;;;;1.70;1.00;;;40.80;1.00;;;;;;6289425;22;20415;-90
2022/07/14 11:52:33;;;;;;;1.87;1.20;;;40.60;1.00;;;;;;6292151;22;20533;-89
2022/07/14 11:55:07;;;;;;;2.30;0.97;;;40.60;1.00;;;;;;6290548;22;20539;-89
2022/07/14 11:57:34;;;;;;;5.33;1.63;;;40.70;1.00;;;;;;6287300;22;20410;-90
2022/07/14 12:00:07;;;;;;;3.83;0.67;;;40.10;1.00;;;;;;6289376;22;20411;-89
2022/07/14 12:02:54;;;;;;;2.10;1.03;;;40.20;1.00;;;;;;6276899;22;20380;-91
2022/07/14 12:05:25;;;;;;;6.37;3.13;;;40.50;1.00;;;;;;6287069;22;20494;-93
2022/07/14 12:07:56;;;;;;;2.20;1.67;;;40.70;1.00;;;;;;6290294;22;20383;-92
2022/07/14 12:10:37;;;;;;;4.67;1.37;;;41.00;1.00;;;;;;6277610;22;20411;-91
2022/07/14 12:13:04;;;;;;;2.60;0.97;;;41.20;1.00;;;;;;6290592;22;20379;-89
2022/07/14 12:15:37;;;;;;;2.23;1.10;;;41.30;1.00;;;;;;6291942;22;20455;-89
2022/07/14 12:18:06;;;;;;;1.67;0.70;;;41.40;1.00;;;;;;6268680;22;20495;-89
2022/07/14 12:20:39;;;;;;;1.87;1.03;;;41.70;1.00;;;;;;6292530;22;20435;-90
2022/07/14 12:23:14;;;;;;;2.47;0.90;;;41.50;1.00;;;;;;6285725;22;20434;-89
2022/07/14 12:25:49;;;;;;;1.93;0.90;;;41.50;1.00;;;;;;6294163;22;20418;-93
2022/07/14 12:28:18;;;;;;;1.77;0.90;;;41.40;1.00;;;;;;6261711;22;20422;-90
2022/07/14 12:30:50;;;;;;;3.13;1.20;;;41.40;1.00;;;;;;6289220;22;20939;-89
2022/07/14 12:33:23;;;;;;;2.27;0.87;;;41.40;1.00;;;;;;6292994;22;20459;-89
2022/07/14 12:35:55;;;;;;;4.20;1.40;;;41.40;1.00;;;;;;6291202;22;20411;-91
2022/07/14 12:38:25;;;;;;;2.23;0.90;;;41.20;1.00;;;;;;6292156;22;20902;-90
2022/07/14 12:40:55;;;;;;;4.60;0.90;;;40.50;1.00;;;;;;6290052;22;20406;-91
2022/07/14 12:43:32;;;;;;;3.97;1.27;;;40.50;1.00;;;;;;6292908;22;20633;-90
2022/07/14 12:46:07;;;;;;;3.00;1.47;;;40.70;1.00;;;;;;6291184;22;20425;-90
2022/07/14 12:48:36;;;;;;;3.00;1.33;;;40.90;1.00;;;;;;6290679;22;20521;-90
2022/07/14 12:51:26;;;;;;;2.27;1.17;;;41.30;1.00;;;;;;6292193;22;20396;-91
2022/07/14 12:54:04;;;;;;;1.80;1.03;;;41.70;1.00;;;;;;6273086;22;20423;-90
2022/07/14 12:56:42;;;;;;;1.80;0.87;;;41.50;1.00;;;;;;6296673;22;20438;-90
2022/07/14 12:59:13;;;;;;;3.23;1.20;;;41.40;1.00;;;;;;6292951;22;20496;-89
2022/07/14 13:01:50;;;;;;;2.40;1.53;;;41.80;1.00;;;;;;6291764;22;20426;-91
2022/07/14 13:04:30;;;;;;;2.20;1.10;;;42.10;1.00;;;;;;6290309;22;20427;-88
2022/07/14 13:07:13;;;;;;;2.43;0.90;;;42.20;1.00;;;;;;6290145;22;20461;-89
2022/07/14 13:10:09;;;;;;;4.07;1.10;;;42.50;1.00;;;;;;6290546;22;20465;-88
2022/07/14 13:12:48;;;;;;;;;;;;;;;;;;;;;
2022/07/14 13:15:17;;;;;;;2.77;2.30;;;41.50;1.00;;;;;;6276170;22;38940;-89
2022/07/14 13:18:05;;;;;;;1.80;0.83;;;41.60;1.00;;;;;;6289564;22;20399;-89
2022/07/14 13:20:52;;;;;;;4.73;2.30;;;41.20;1.00;;;;;;6286771;22;20411;-89
2022/07/14 13:23:30;;;;;;;1.50;0.83;;;41.20;1.00;;;;;;6296719;22;20463;-90
2022/07/14 13:26:13;;;;;;;3.50;1.40;;;41.40;1.00;;;;;;6295596;22;20415;-90